createdAt,value
2018-02-25T00:01:30.816Z,98159.70
2018-02-25T00:03:58.524Z,98158.92
2018-02-25T00:06:26.097Z,98157.60
2018-02-25T00:08:53.642Z,98162.44
2018-02-25T00:11:21.124Z,98158.70
2018-02-25T00:13:48.645Z,98167.85
2018-02-25T00:16:16.227Z,98164.70
2018-02-25T00:18:43.888Z,98165.81
2018-02-25T00:21:11.378Z,98167.62
2018-02-25T00:23:39.008Z,98167.06
2018-02-25T00:26:06.954Z,98168.27
2018-02-25T00:28:34.458Z,98170.52
2018-02-25T00:31:02.016Z,98171.30
2018-02-25T00:33:29.502Z,98168.45
2018-02-25T00:35:56.998Z,98166.31
2018-02-25T00:38:24.566Z,98167.63
2018-02-25T00:40:52.077Z,98178.53
2018-02-25T00:43:19.602Z,98176.44
2018-02-25T00:45:47.102Z,98163.94
2018-02-25T00:48:14.636Z,98168.88
2018-02-25T00:50:42.134Z,98173.64
2018-02-25T00:53:09.671Z,98183.06
2018-02-25T00:55:37.158Z,98180.72
2018-02-25T00:58:04.677Z,98182.26
2018-02-25T01:00:32.157Z,98184.45
2018-02-25T01:02:59.677Z,98177.34
2018-02-25T01:05:27.201Z,98174.67
2018-02-25T01:07:54.731Z,98181.13
2018-02-25T01:10:22.235Z,98188.86
2018-02-25T01:12:49.834Z,98177.50
2018-02-25T01:15:17.629Z,98183.72
2018-02-25T01:17:45.151Z,98185.97
2018-02-25T01:20:12.652Z,98189.28
2018-02-25T01:22:40.218Z,98189.74
2018-02-25T01:25:07.778Z,98193.59
2018-02-25T01:27:35.420Z,98187.87
2018-02-25T01:30:03.053Z,98191.73
2018-02-25T01:32:30.587Z,98191.13
2018-02-25T01:34:58.158Z,98197.48
2018-02-25T01:37:25.763Z,98193.62
2018-02-25T01:39:53.255Z,98185.15
2018-02-25T01:42:20.778Z,98188.72
2018-02-25T01:44:48.310Z,98190.32
2018-02-25T01:47:15.825Z,98184.75
2018-02-25T01:49:43.365Z,98183.55
2018-02-25T01:52:10.959Z,98189.16
2018-02-25T01:54:38.460Z,98183.80
2018-02-25T01:57:06.574Z,98178.36
2018-02-25T01:59:34.430Z,98174.59
2018-02-25T02:02:01.960Z,98173.83
2018-02-25T02:04:29.465Z,98174.77
2018-02-25T02:06:56.974Z,98174.45
2018-02-25T02:09:24.923Z,98173.63
2018-02-25T02:11:52.454Z,98178.93
2018-02-25T02:14:19.941Z,98173.80
2018-02-25T02:16:47.486Z,98180.16
2018-02-25T02:19:14.988Z,98175.66
2018-02-25T02:21:42.493Z,98171.05
2018-02-25T02:24:10.137Z,98170.95
2018-02-25T02:26:37.651Z,98169.87
2018-02-25T02:29:05.801Z,98170.05
2018-02-25T02:31:33.330Z,98169.22
2018-02-25T02:34:00.827Z,98167.50
2018-02-25T02:36:28.560Z,98157.90
2018-02-25T02:38:56.356Z,98157.13
2018-02-25T02:41:23.870Z,98165.14
2018-02-25T02:43:51.357Z,98161.91
2018-02-25T02:46:18.873Z,98166.59
2018-02-25T02:48:46.385Z,98169.22
2018-02-25T02:51:13.996Z,98174.22
2018-02-25T02:53:41.510Z,98170.80
2018-02-25T02:56:09.003Z,98176.33
2018-02-25T02:58:36.526Z,98176.05
2018-02-25T03:01:04.024Z,98183.38
2018-02-25T03:03:31.576Z,98185.23
2018-02-25T03:05:59.148Z,98188.81
2018-02-25T03:08:26.655Z,98192.19
2018-02-25T03:10:54.219Z,98199.39
2018-02-25T03:13:22.018Z,98205.27
2018-02-25T03:15:49.544Z,98203.05
2018-02-25T03:18:17.026Z,98196.02
2018-02-25T03:20:44.528Z,98197.12
2018-02-25T03:23:12.113Z,98196.40
2018-02-25T03:25:39.643Z,98204.45
2018-02-25T03:28:07.239Z,98207.80
2018-02-25T03:30:34.793Z,98206.86
2018-02-25T03:33:02.302Z,98213.73
2018-02-25T03:35:29.787Z,98200.88
2018-02-25T03:37:57.375Z,98197.59
2018-02-25T03:40:24.877Z,98207.07
2018-02-25T03:42:52.474Z,98204.45
2018-02-25T03:45:20.008Z,98206.73
2018-02-25T03:47:47.501Z,98205.30
2018-02-25T03:50:15.046Z,98205.55
2018-02-25T03:52:42.546Z,98211.73
2018-02-25T03:55:10.088Z,98209.50
2018-02-25T03:57:37.564Z,98210.36
2018-02-25T04:00:05.990Z,98207.53
2018-02-25T04:02:33.535Z,98196.89
2018-02-25T04:05:01.128Z,98202.69
2018-02-25T04:07:28.623Z,98203.39
2018-02-25T04:09:56.098Z,98209.45
2018-02-25T04:12:23.689Z,98199.66
2018-02-25T04:14:51.221Z,98206.40
2018-02-25T04:17:18.720Z,98211.98
2018-02-25T04:19:46.193Z,98212.89
2018-02-25T04:22:13.700Z,98212.40
2018-02-25T04:24:41.198Z,98211.00
2018-02-25T04:27:08.683Z,98215.05
2018-02-25T04:29:36.200Z,98212.52
2018-02-25T04:32:03.733Z,98220.70
2018-02-25T04:34:31.254Z,98221.38
2018-02-25T04:36:58.743Z,98217.27
2018-02-25T04:39:26.249Z,98211.52
2018-02-25T04:41:53.725Z,98210.18
2018-02-25T04:44:21.239Z,98212.05
2018-02-25T04:46:49.540Z,98209.20
2018-02-25T04:49:17.032Z,98212.89
2018-02-25T04:51:44.539Z,98215.91
2018-02-25T04:54:12.050Z,98221.00
2018-02-25T04:56:39.600Z,98228.25
2018-02-25T04:59:07.079Z,98225.86
2018-02-25T05:01:34.674Z,98233.59
2018-02-25T05:04:02.304Z,98229.28
2018-02-25T05:06:29.801Z,98231.08
2018-02-25T05:08:57.325Z,98228.00
2018-02-25T05:11:24.816Z,98240.84
2018-02-25T05:13:52.413Z,98240.47
2018-02-25T05:16:19.969Z,98241.98
2018-02-25T05:18:47.474Z,98247.22
2018-02-25T05:21:14.994Z,98243.56
2018-02-25T05:23:42.481Z,98234.38
2018-02-25T05:26:10.027Z,98237.63
2018-02-25T05:28:37.513Z,98233.89
2018-02-25T05:31:05.030Z,98232.09
2018-02-25T05:33:32.533Z,98236.31
2018-02-25T05:36:00.087Z,98239.78
2018-02-25T05:38:27.576Z,98240.82
2018-02-25T05:40:55.092Z,98246.39
2018-02-25T05:43:22.759Z,98245.34
2018-02-25T05:45:50.345Z,98242.14
2018-02-25T05:48:17.924Z,98248.52
2018-02-25T05:50:45.499Z,98252.14
2018-02-25T05:53:13.122Z,98251.53
2018-02-25T05:55:40.731Z,98251.95
2018-02-25T05:58:08.305Z,98251.30
2018-02-25T06:00:35.939Z,98258.03
2018-02-25T06:03:03.458Z,98252.62
2018-02-25T06:05:30.968Z,98259.80
2018-02-25T06:07:58.447Z,98266.04
2018-02-25T06:10:26.047Z,98267.31
2018-02-25T06:12:53.567Z,98275.12
2018-02-25T06:15:21.090Z,98277.34
2018-02-25T06:17:48.681Z,98280.62
2018-02-25T06:20:16.214Z,98279.77
2018-02-25T06:22:44.317Z,98281.59
2018-02-25T06:25:12.287Z,98290.73
2018-02-25T06:27:39.825Z,98284.88
2018-02-25T06:30:07.308Z,98288.88
2018-02-25T06:32:34.813Z,98283.63
2018-02-25T06:35:02.353Z,98288.82
2018-02-25T06:37:29.863Z,98290.48
2018-02-25T06:39:57.344Z,98287.29
2018-02-25T06:42:25.114Z,98297.62
2018-02-25T06:44:53.405Z,98295.06
2018-02-25T06:47:20.946Z,98305.98
2018-02-25T06:49:48.473Z,98309.47
2018-02-25T06:52:15.962Z,98307.83
2018-02-25T06:54:43.538Z,98307.00
2018-02-25T06:57:11.033Z,98314.38
2018-02-25T06:59:38.612Z,98312.56
2018-02-25T07:02:06.190Z,98302.75
2018-02-25T07:04:33.677Z,98305.01
2018-02-25T07:07:01.193Z,98302.11
2018-02-25T07:09:28.682Z,98309.31
2018-02-25T07:11:56.195Z,98308.91
2018-02-25T07:14:23.688Z,98307.81
2018-02-25T07:16:51.953Z,98306.95
2018-02-25T07:19:19.433Z,98311.72
2018-02-25T07:21:46.979Z,98302.64
2018-02-25T07:24:14.493Z,98312.80
2018-02-25T07:26:41.973Z,98304.31
2018-02-25T07:29:09.491Z,98305.17
2018-02-25T07:31:36.984Z,98304.21
2018-02-25T07:34:04.503Z,98312.24
2018-02-25T07:36:31.982Z,98308.80
2018-02-25T07:38:59.584Z,98312.84
2018-02-25T07:41:27.076Z,98308.08
2018-02-25T07:43:54.694Z,98315.13
2018-02-25T07:46:22.311Z,98313.73
2018-02-25T07:48:49.918Z,98306.30
2018-02-25T07:51:17.489Z,98313.80
2018-02-25T07:53:45.148Z,98310.66
2018-02-25T07:56:12.667Z,98320.83
2018-02-25T07:58:40.362Z,98312.44
2018-02-25T08:01:08.039Z,98314.41
2018-02-25T08:03:35.536Z,98307.27
2018-02-25T08:06:03.069Z,98310.83
2018-02-25T08:08:30.583Z,98312.46
2018-02-25T08:10:58.064Z,98316.41
2018-02-25T08:13:25.608Z,98307.30
2018-02-25T08:15:53.112Z,98306.02
2018-02-25T08:18:20.606Z,98311.67
2018-02-25T08:20:48.146Z,98307.08
2018-02-25T08:23:15.708Z,98312.27
2018-02-25T08:25:43.653Z,98318.12
2018-02-25T08:28:11.238Z,98318.66
2018-02-25T08:30:38.808Z,98300.46
2018-02-25T08:33:06.315Z,98315.75
2018-02-25T08:35:34.754Z,98310.45
2018-02-25T08:38:02.262Z,98309.89
2018-02-25T08:40:30.437Z,98309.36
2018-02-25T08:42:57.922Z,98318.47
2018-02-25T08:45:25.446Z,98312.94
2018-02-25T08:47:52.995Z,98307.94
2018-02-25T08:50:20.516Z,98313.64
2018-02-25T08:52:48.070Z,98307.35
2018-02-25T08:55:15.897Z,98302.82
2018-02-25T08:57:43.472Z,98302.13
2018-02-25T09:00:11.072Z,98301.20
2018-02-25T09:02:38.787Z,98306.17
2018-02-25T09:05:06.292Z,98301.97
2018-02-25T09:07:34.418Z,98297.02
2018-02-25T09:10:01.947Z,98299.77
2018-02-25T09:12:30.027Z,98289.95
2018-02-25T09:14:57.655Z,98299.98
2018-02-25T09:17:25.245Z,98297.02
2018-02-25T09:19:52.773Z,98291.38
2018-02-25T09:22:20.380Z,98285.61
2018-02-25T09:24:47.927Z,98289.35
2018-02-25T09:27:15.446Z,98289.41
2018-02-25T09:29:42.952Z,98283.09
2018-02-25T09:32:10.480Z,98286.55
2018-02-25T09:34:38.241Z,98284.53
2018-02-25T09:37:05.818Z,98282.23
2018-02-25T09:39:33.396Z,98285.68
2018-02-25T09:42:00.952Z,98279.14
2018-02-25T09:44:28.526Z,98274.59
2018-02-25T09:46:56.050Z,98277.73
2018-02-25T09:49:23.714Z,98273.02
2018-02-25T09:51:51.270Z,98275.73
2018-02-25T09:54:18.985Z,98265.53
2018-02-25T09:56:46.496Z,98254.27
2018-02-25T09:59:14.052Z,98268.27
2018-02-25T10:01:41.570Z,98266.13
2018-02-25T10:04:09.080Z,98267.31
2018-02-25T10:06:36.617Z,98259.34
2018-02-25T10:09:04.102Z,98257.13
2018-02-25T10:11:31.633Z,98266.47
2018-02-25T10:13:59.128Z,98260.58
2018-02-25T10:16:26.648Z,98253.20
2018-02-25T10:18:54.141Z,98246.25
2018-02-25T10:21:21.658Z,98248.16
2018-02-25T10:23:50.001Z,98245.12
2018-02-25T10:26:17.558Z,98246.27
2018-02-25T10:28:45.259Z,98249.86
2018-02-25T10:31:12.752Z,98246.09
2018-02-25T10:33:40.283Z,98248.38
2018-02-25T10:36:07.798Z,98242.59
2018-02-25T10:38:36.615Z,98236.30
2018-02-25T10:41:04.179Z,98242.33
2018-02-25T10:43:31.777Z,98229.49
2018-02-25T10:45:59.338Z,98231.16
2018-02-25T10:48:26.903Z,98229.67
2018-02-25T10:50:54.463Z,98228.66
2018-02-25T10:53:21.993Z,98225.30
2018-02-25T10:55:49.510Z,98221.80
2018-02-25T10:58:16.999Z,98216.23
2018-02-25T11:03:39.214Z,98211.09
2018-02-25T11:06:06.738Z,98219.09
2018-02-25T11:08:34.254Z,98215.28
2018-02-25T11:11:01.782Z,98202.78
2018-02-25T11:13:29.263Z,98193.44
2018-02-25T11:15:56.776Z,98210.53
2018-02-25T11:18:24.289Z,98198.16
2018-02-25T11:20:51.834Z,98201.17
2018-02-25T11:23:19.485Z,98209.77
2018-02-25T11:25:46.997Z,98197.80
2018-02-25T11:28:14.514Z,98194.63
2018-02-25T11:30:42.000Z,98195.13
2018-02-25T11:33:09.565Z,98196.03
2018-02-25T11:35:37.071Z,98185.31
2018-02-25T11:38:04.577Z,98190.23
2018-02-25T11:40:32.091Z,98185.05
2018-02-25T11:42:59.572Z,98183.85
2018-02-25T11:45:27.090Z,98186.27
2018-02-25T11:47:54.582Z,98188.91
2018-02-25T11:50:22.329Z,98182.80
2018-02-25T11:52:49.819Z,98182.60
2018-02-25T11:55:17.387Z,98181.14
2018-02-25T11:57:44.867Z,98178.22
2018-02-25T12:00:12.402Z,98178.27
2018-02-25T12:02:39.926Z,98175.85
2018-02-25T12:05:07.512Z,98179.98
2018-02-25T12:07:35.141Z,98164.77
2018-02-25T12:10:02.747Z,98171.18
2018-02-25T12:12:30.351Z,98165.02
2018-02-25T12:14:59.611Z,98163.42
2018-02-25T12:17:25.594Z,98175.44
2018-02-25T12:19:53.130Z,98165.51
2018-02-25T12:22:20.619Z,98161.81
2018-02-25T12:24:48.147Z,98152.16
2018-02-25T12:27:15.633Z,98153.55
2018-02-25T12:29:43.134Z,98155.82
2018-02-25T12:32:10.627Z,98160.73
2018-02-25T12:34:38.162Z,98152.58
2018-02-25T12:37:05.666Z,98155.39
2018-02-25T12:39:33.167Z,98142.63
2018-02-25T12:42:00.754Z,98149.37
2018-02-25T12:44:28.251Z,98135.84
2018-02-25T12:46:55.775Z,98142.55
2018-02-25T12:49:23.303Z,98145.81
2018-02-25T12:51:50.861Z,98137.84
2018-02-25T12:54:18.357Z,98133.72
2018-02-25T12:56:45.851Z,98135.41
2018-02-25T12:59:13.395Z,98126.48
2018-02-25T13:01:41.021Z,98129.97
2018-02-25T13:04:08.630Z,98133.13
2018-02-25T13:06:36.151Z,98135.19
2018-02-25T13:09:03.680Z,98137.32
2018-02-25T13:11:31.254Z,98133.69
2018-02-25T13:13:58.810Z,98136.47
2018-02-25T13:16:26.439Z,98128.44
2018-02-25T13:18:53.936Z,98126.94
2018-02-25T13:21:21.651Z,98132.61
2018-02-25T13:23:49.157Z,98136.43
2018-02-25T13:26:16.696Z,98134.27
2018-02-25T13:28:44.201Z,98122.83
2018-02-25T13:31:11.729Z,98138.78
2018-02-25T13:33:39.258Z,98133.66
2018-02-25T13:36:06.783Z,98130.95
2018-02-25T13:38:34.545Z,98132.73
2018-02-25T13:41:02.039Z,98126.17
2018-02-25T13:43:29.549Z,98116.22
2018-02-25T13:45:57.050Z,98112.95
2018-02-25T13:48:24.576Z,98120.25
2018-02-25T13:50:52.080Z,98113.09
2018-02-25T13:53:19.640Z,98112.59
2018-02-25T13:55:47.188Z,98117.42
2018-02-25T13:58:14.762Z,98112.64
2018-02-25T14:00:42.340Z,98114.17
2018-02-25T14:03:09.974Z,98114.16
2018-02-25T14:05:37.564Z,98112.90
2018-02-25T14:08:05.152Z,98110.50
2018-02-25T14:10:32.797Z,98113.03
2018-02-25T14:13:00.376Z,98112.90
2018-02-25T14:15:27.914Z,98119.45
2018-02-25T14:17:55.601Z,98120.67
2018-02-25T14:20:23.128Z,98104.66
2018-02-25T14:22:50.630Z,98114.02
2018-02-25T14:25:18.148Z,98113.09
2018-02-25T14:27:45.657Z,98108.31
2018-02-25T14:30:13.192Z,98111.95
2018-02-25T14:32:40.692Z,98117.60
2018-02-25T14:35:08.183Z,98117.19
2018-02-25T14:37:36.282Z,98121.75
2018-02-25T14:40:03.771Z,98116.70
2018-02-25T14:42:31.400Z,98110.37
2018-02-25T14:44:58.959Z,98114.19
2018-02-25T14:47:26.607Z,98107.66
2018-02-25T14:49:54.240Z,98112.53
2018-02-25T14:52:21.771Z,98107.76
2018-02-25T14:54:49.282Z,98105.75
2018-02-25T14:57:16.768Z,98107.61
2018-02-25T14:59:44.315Z,98107.74
2018-02-25T15:02:11.849Z,98110.75
2018-02-25T15:04:39.427Z,98113.80
2018-02-25T15:07:06.999Z,98108.95
2018-02-25T15:09:34.497Z,98116.91
2018-02-25T15:12:02.010Z,98119.11
2018-02-25T15:14:29.486Z,98115.27
2018-02-25T15:16:57.016Z,98119.34
2018-02-25T15:19:24.545Z,98113.91
2018-02-25T15:21:52.019Z,98111.11
2018-02-25T15:24:19.570Z,98104.36
2018-02-25T15:26:47.173Z,98117.38
2018-02-25T15:29:14.694Z,98101.30
2018-02-25T15:31:42.289Z,98111.48
2018-02-25T15:34:09.802Z,98116.42
2018-02-25T15:36:37.353Z,98115.87
2018-02-25T15:39:04.903Z,98115.31
2018-02-25T15:41:32.416Z,98124.13
2018-02-25T15:44:00.070Z,98118.45
2018-02-25T15:46:27.754Z,98115.42
2018-02-25T15:48:55.299Z,98115.93
2018-02-25T15:51:22.816Z,98115.39
2018-02-25T15:53:50.354Z,98117.53
2018-02-25T15:56:17.934Z,98113.91
2018-02-25T15:58:45.509Z,98115.06
2018-02-25T16:01:13.056Z,98122.20
2018-02-25T16:03:40.618Z,98118.41
2018-02-25T16:06:08.292Z,98121.70
2018-02-25T16:08:35.780Z,98113.38
2018-02-25T16:11:03.305Z,98117.58
2018-02-25T16:13:30.834Z,98116.88
2018-02-25T16:15:58.804Z,98119.59
2018-02-25T16:18:26.328Z,98113.88
2018-02-25T16:20:53.985Z,98121.81
2018-02-25T16:23:21.487Z,98117.34
2018-02-25T16:25:49.098Z,98118.23
2018-02-25T16:28:17.289Z,98122.82
2018-02-25T16:30:44.786Z,98120.42
2018-02-25T16:33:12.397Z,98131.50
2018-02-25T16:35:39.886Z,98128.66
2018-02-25T16:38:07.508Z,98134.70
2018-02-25T16:40:35.003Z,98133.29
2018-02-25T16:43:02.541Z,98135.66
2018-02-25T16:45:30.038Z,98138.70
2018-02-25T16:47:57.828Z,98147.88
2018-02-25T16:50:25.334Z,98141.79
2018-02-25T16:52:52.838Z,98146.36
2018-02-25T16:55:20.370Z,98153.97
2018-02-25T16:57:47.868Z,98150.70
2018-02-25T17:00:15.454Z,98159.13
2018-02-25T17:02:43.403Z,98158.13
2018-02-25T17:05:10.945Z,98162.70
2018-02-25T17:07:38.476Z,98177.13
2018-02-25T17:10:06.181Z,98177.02
2018-02-25T17:12:33.727Z,98172.13
2018-02-25T17:15:01.380Z,98180.05
2018-02-25T17:17:28.945Z,98185.23
2018-02-25T17:19:56.452Z,98180.07
2018-02-25T17:22:23.999Z,98183.01
2018-02-25T17:24:51.525Z,98187.87
2018-02-25T17:27:19.078Z,98190.41
2018-02-25T17:29:46.598Z,98188.47
2018-02-25T17:32:14.191Z,98196.09
2018-02-25T17:34:41.782Z,98201.67
2018-02-25T17:37:09.278Z,98197.22
2018-02-25T17:39:36.821Z,98203.49
2018-02-25T17:42:04.485Z,98200.66
2018-02-25T17:44:32.501Z,98196.80
2018-02-25T17:47:00.498Z,98196.20
2018-02-25T17:49:28.155Z,98203.73
2018-02-25T17:51:55.706Z,98211.63
2018-02-25T17:54:23.319Z,98200.88
2018-02-25T17:56:51.006Z,98207.97
2018-02-25T17:59:18.657Z,98199.84
2018-02-25T18:01:46.282Z,98205.94
2018-02-25T18:04:13.819Z,98202.50
2018-02-25T18:06:43.266Z,98207.36
2018-02-25T18:09:10.801Z,98205.94
2018-02-25T18:11:38.313Z,98211.33
2018-02-25T18:14:07.294Z,98206.65
2018-02-25T18:16:34.810Z,98202.29
2018-02-25T18:19:02.397Z,98201.14
2018-02-25T18:21:29.897Z,98203.38
2018-02-25T18:23:57.438Z,98210.39
2018-02-25T18:26:24.979Z,98208.27
2018-02-25T18:28:52.496Z,98209.30
2018-02-25T18:31:20.051Z,98214.27
2018-02-25T18:33:47.713Z,98212.32
2018-02-25T18:36:15.317Z,98211.81
2018-02-25T18:38:42.843Z,98214.97
2018-02-25T18:41:10.376Z,98213.41
2018-02-25T18:43:37.856Z,98214.02
2018-02-25T18:46:05.401Z,98212.42
2018-02-25T18:48:32.955Z,98213.03
2018-02-25T18:51:00.507Z,98215.64
2018-02-25T18:53:28.062Z,98217.78
2018-02-25T18:55:55.607Z,98217.81
2018-02-25T18:58:23.183Z,98212.63
2018-02-25T19:00:50.729Z,98218.73
2018-02-25T19:03:18.310Z,98218.52
2018-02-25T19:05:45.829Z,98220.55
2018-02-25T19:08:13.331Z,98220.95
2018-02-25T19:10:40.909Z,98218.82
2018-02-25T19:13:08.427Z,98217.70
2018-02-25T19:15:35.980Z,98223.50
2018-02-25T19:18:03.521Z,98220.55
2018-02-25T19:20:32.038Z,98217.83
2018-02-25T19:22:59.654Z,98219.36
2018-02-25T19:25:27.238Z,98221.88
2018-02-25T19:27:54.827Z,98221.09
2018-02-25T19:30:22.502Z,98218.72
2018-02-25T19:32:50.028Z,98218.52
2018-02-25T19:35:17.565Z,98212.12
2018-02-25T19:37:50.576Z,98219.55
2018-02-25T19:40:23.702Z,98216.60
2018-02-25T19:42:51.293Z,98214.47
2018-02-25T19:45:18.819Z,98214.47
2018-02-25T19:47:46.362Z,98220.77
2018-02-25T19:50:14.346Z,98221.19
2018-02-25T19:52:41.882Z,98212.56
2018-02-25T19:55:09.401Z,98214.89
2018-02-25T19:57:36.929Z,98222.21
2018-02-25T20:00:04.463Z,98219.34
2018-02-25T20:02:32.004Z,98211.55
2018-02-25T20:04:59.639Z,98216.91
2018-02-25T20:07:27.223Z,98209.60
2018-02-25T20:09:54.792Z,98217.12
2018-02-25T20:12:22.419Z,98206.16
2018-02-25T20:14:50.862Z,98210.81
2018-02-25T20:17:18.471Z,98210.94
2018-02-25T20:19:45.972Z,98215.30
2018-02-25T20:22:13.710Z,98214.08
2018-02-25T20:24:41.351Z,98222.80
2018-02-25T20:27:08.930Z,98212.75
2018-02-25T20:29:36.482Z,98214.19
2018-02-25T20:32:04.005Z,98217.03
2018-02-25T20:34:31.550Z,98215.91
2018-02-25T20:36:59.138Z,98212.23
2018-02-25T20:39:26.664Z,98211.34
2018-02-25T20:41:54.164Z,98212.13
2018-02-25T20:44:22.579Z,98221.67
2018-02-25T20:46:50.086Z,98214.95
2018-02-25T20:49:17.646Z,98224.80
2018-02-25T20:51:45.201Z,98217.91
2018-02-25T20:54:12.708Z,98218.48
2018-02-25T20:56:40.218Z,98217.77
2018-02-25T20:59:07.712Z,98215.80
2018-02-25T21:01:35.254Z,98215.39
2018-02-25T21:04:02.798Z,98212.56
2018-02-25T21:06:30.317Z,98215.72
2018-02-25T21:08:57.829Z,98215.44
2018-02-25T21:11:25.346Z,98216.31
2018-02-25T21:13:52.878Z,98216.29
2018-02-25T21:16:20.388Z,98220.03
2018-02-25T21:18:47.927Z,98223.10
2018-02-25T21:21:15.447Z,98222.84
2018-02-25T21:23:42.974Z,98219.66
2018-02-25T21:26:10.463Z,98226.38
2018-02-25T21:28:38.006Z,98223.50
2018-02-25T21:31:05.503Z,98220.40
2018-02-25T21:33:33.058Z,98219.77
2018-02-25T21:36:00.597Z,98222.34
2018-02-25T21:38:28.179Z,98220.24
2018-02-25T21:40:55.718Z,98221.34
2018-02-25T21:43:23.217Z,98222.18
2018-02-25T21:45:50.798Z,98224.41
2018-02-25T21:48:18.467Z,98221.47
2018-02-25T21:50:45.977Z,98223.14
2018-02-25T21:53:14.293Z,98221.92
2018-02-25T21:58:48.335Z,98220.39
2018-02-25T22:01:21.445Z,98223.25
2018-02-25T22:03:48.990Z,98226.05
2018-02-25T22:06:16.559Z,98218.53
2018-02-25T22:08:44.075Z,98227.45
2018-02-25T22:11:11.663Z,98226.30
2018-02-25T22:13:39.216Z,98221.81
2018-02-25T22:16:06.706Z,98226.80
2018-02-25T22:18:34.333Z,98221.78
2018-02-25T22:21:01.852Z,98222.69
2018-02-25T22:23:29.426Z,98225.95
2018-02-25T22:25:57.058Z,98221.32
2018-02-25T22:28:24.578Z,98220.67
2018-02-25T22:30:52.096Z,98227.05
2018-02-25T22:33:19.600Z,98225.45
2018-02-25T22:35:47.208Z,98228.79
2018-02-25T22:38:14.735Z,98221.34
2018-02-25T22:40:42.350Z,98216.98
2018-02-25T22:43:10.017Z,98226.24
2018-02-25T22:45:37.499Z,98233.76
2018-02-25T22:48:05.072Z,98215.31
2018-02-25T22:50:32.627Z,98222.47
2018-02-25T22:53:00.752Z,98214.27
2018-02-25T22:55:28.254Z,98225.24
2018-02-25T22:57:55.935Z,98217.50
2018-02-25T23:00:23.448Z,98217.25
2018-02-25T23:02:50.950Z,98218.34
2018-02-25T23:05:18.539Z,98227.69
2018-02-25T23:07:46.088Z,98227.21
2018-02-25T23:10:13.649Z,98229.25
2018-02-25T23:12:41.205Z,98225.89
2018-02-25T23:15:08.712Z,98232.92
2018-02-25T23:17:36.248Z,98232.20
2018-02-25T23:20:03.725Z,98229.69
2018-02-25T23:22:31.278Z,98227.54
2018-02-25T23:24:58.791Z,98228.32
2018-02-25T23:27:26.357Z,98231.37
2018-02-25T23:29:53.855Z,98227.97
2018-02-25T23:32:21.352Z,98234.28
2018-02-25T23:34:48.992Z,98228.20
2018-02-25T23:37:16.514Z,98227.30
2018-02-25T23:39:44.022Z,98230.02
2018-02-25T23:42:11.519Z,98228.38
2018-02-25T23:44:39.085Z,98232.91
2018-02-25T23:47:06.674Z,98226.02
2018-02-25T23:49:34.190Z,98222.54
2018-02-25T23:52:01.736Z,98223.81
2018-02-25T23:54:29.392Z,98219.91
2018-02-25T23:56:57.001Z,98224.18
2018-02-25T23:59:24.543Z,98216.01
